METAR Data
IDs: Format: Raw Decoded Include TAF

Data at: 0202 UTC 01 Mar 2021

KIOW 010152Z AUTO 31012KT 10SM CLR 00/M04 A3005 RMK AO2 SLP184 T00001044